Time;durP1;ratioP1;P1;durP2;ratioP2;P2;SDS_P1;SDS_P2;PMS_P1;PMS_P2;Temp;Humidity;BMP_temperature;BMP_pressure;BME280_temperature;BME280_humidity;BME280_pressure;Samples;Min_cycle;Max_cycle;Signal;HPM_P1;HPM_P2
2022/06/03 00:02:38;;;;;;;0.73;0.40;;;;;;;;;;20987256;28;20704;-77
2022/06/03 00:12:44;;;;;;;0.77;0.47;;;;;;;;;;20969846;28;20712;-77
2022/06/03 00:23:06;;;;;;;0.40;0.30;;;;;;;;;;20986785;28;20236;-77
2022/06/03 00:33:31;;;;;;;0.63;0.40;;;20.40;91.30;;;;;;20953275;28;20266;-77
2022/06/03 00:43:46;;;;;;;0.67;0.60;;;;;;;;;;20971800;28;20217;-77
2022/06/03 00:53:51;;;;;;;0.90;0.40;;;;;;;;;;20986977;28;20559;-77
2022/06/03 01:04:13;;;;;;;2.10;0.37;;;;;;;;;;20984208;28;20255;-76
2022/06/03 01:14:15;;;;;;;0.30;0.30;;;;;;;;;;20994688;28;20238;-77
2022/06/03 01:24:17;;;;;;;0.37;0.30;;;;;;;;;;20984247;28;20281;-76
2022/06/03 01:34:18;;;;;;;0.87;0.30;;;;;;;;;;21000719;28;20203;-77
2022/06/03 01:44:35;;;;;;;0.93;0.53;;;;;;;;;;20999352;28;20212;-76
2022/06/03 01:54:40;;;;;;;0.90;0.60;;;;;;;;;;20998869;28;20268;-76
2022/06/03 02:04:46;;;;;;;0.50;0.40;;;;;;;;;;20999249;28;20630;-76
2022/06/03 02:15:38;;;;;;;0.40;0.33;;;19.40;99.20;;;;;;21001540;28;20575;-77
2022/06/03 02:25:56;;;;;;;0.50;0.40;;;;;;;;;;20970378;28;20225;-77
2022/06/03 02:36:41;;;;;;;0.83;0.60;;;19.10;99.70;;;;;;20997595;28;20510;-77
2022/06/03 02:46:45;;;;;;;0.50;0.40;;;;;;;;;;20981126;28;20232;-76
2022/06/03 02:56:54;;;;;;;0.60;0.37;;;;;;;;;;20994056;28;20213;-75
2022/06/03 03:07:12;;;;;;;0.80;0.40;;;;;;;;;;20995222;28;20207;-76
2022/06/03 03:17:32;;;;;;;0.40;0.40;;;;;;;;;;20975261;28;20237;-75
2022/06/03 03:28:05;;;;;;;0.60;0.43;;;18.80;99.90;;;;;;20991969;28;20646;-75
2022/06/03 03:38:25;;;;;;;1.90;0.43;;;;;;;;;;20998556;28;20718;-74
2022/06/03 03:48:58;;;;;;;0.77;0.40;;;18.80;99.90;;;;;;20991631;28;20200;-74
2022/06/03 03:59:15;;;;;;;0.33;0.30;;;;;;;;;;20998586;28;20220;-74
2022/06/03 04:09:28;;;;;;;0.93;0.57;;;;;;;;;;20990170;28;20609;-75
2022/06/03 04:19:49;;;;;;;0.50;0.40;;;;;;;;;;20950317;28;20215;-75
2022/06/03 04:30:12;;;;;;;0.40;0.30;;;18.80;90.90;;;;;;20963329;28;20213;-74
2022/06/03 04:40:17;;;;;;;2.93;0.70;;;;;;;;;;20986821;28;20213;-74
2022/06/03 04:50:28;;;;;;;1.73;0.50;;;;;;;;;;20981581;28;20278;-74
2022/06/03 05:00:30;;;;;;;1.00;0.50;;;;;;;;;;20936277;28;20282;-74
2022/06/03 05:10:52;;;;;;;1.37;0.50;;;;;;;;;;20949454;28;20682;-74
2022/06/03 05:21:05;;;;;;;1.90;0.50;;;;;;;;;;20981430;28;20755;-74
2022/06/03 05:31:19;;;;;;;1.00;0.50;;;;;;;;;;20962215;28;20209;-75
2022/06/03 05:52:12;;;;;;;1.23;0.60;;;;;;;;;;20979906;28;20703;-75
2022/06/03 06:02:17;;;;;;;0.77;0.50;;;;;;;;;;20989397;28;20293;-76
2022/06/03 06:12:28;;;;;;;1.87;0.47;;;;;;;;;;20988492;28;20594;-75
2022/06/03 06:22:31;;;;;;;0.43;0.40;;;;;;;;;;20987789;28;20305;-74
2022/06/03 06:32:42;;;;;;;0.50;0.33;;;;;;;;;;20990221;28;20219;-74
2022/06/03 06:42:53;;;;;;;0.73;0.37;;;;;;;;;;20991105;28;20219;-75
2022/06/03 06:53:04;;;;;;;0.53;0.40;;;;;;;;;;20994906;28;20245;-75
2022/06/03 07:03:18;;;;;;;0.90;0.60;;;20.80;92.30;;;;;;20994550;28;20285;-76
2022/06/03 07:13:46;;;;;;;0.40;0.30;;;20.90;86.20;;;;;;20992492;28;20391;-75
2022/06/03 07:23:53;;;;;;;1.20;0.50;;;;;;;;;;20990797;28;20628;-75
2022/06/03 07:34:15;;;;;;;1.13;0.53;;;;;;;;;;20986659;28;20695;-76
2022/06/03 07:44:28;;;;;;;2.80;0.50;;;;;;;;;;21010186;28;20212;-75
2022/06/03 07:54:36;;;;;;;0.50;0.40;;;;;;;;;;20975099;28;20234;-75
2022/06/03 08:04:39;;;;;;;0.80;0.43;;;;;;;;;;20969967;28;20241;-75
2022/06/03 08:14:42;;;;;;;0.80;0.60;;;;;;;;;;20986842;28;20219;-74
2022/06/03 08:24:51;;;;;;;0.93;0.60;;;;;;;;;;20968940;28;20229;-75
2022/06/03 08:34:56;;;;;;;0.33;0.30;;;;;;;;;;20981985;28;20216;-75
2022/06/03 08:45:17;;;;;;;0.95;0.55;;;;;;;;;;20964809;28;20220;-75
2022/06/03 08:55:18;;;;;;;2.60;0.60;;;;;;;;;;20981761;28;20205;-74
2022/06/03 09:05:40;;;;;;;0.90;0.60;;;;;;;;;;20980633;28;20212;-75
2022/06/03 09:15:44;;;;;;;1.77;0.63;;;23.80;94.50;;;;;;20959064;28;20211;-76
2022/06/03 09:25:48;;;;;;;2.63;0.90;;;;;;;;;;20984249;28;20285;-77
2022/06/03 09:35:52;;;;;;;2.38;1.00;;;;;;;;;;20970585;28;20586;-77
2022/06/03 09:45:56;;;;;;;2.22;0.95;;;24.70;90.80;;;;;;20993420;28;20232;-77
2022/06/03 09:56:01;;;;;;;2.15;1.02;;;;;;;;;;20967810;28;20280;-77
2022/06/03 10:06:03;;;;;;;2.30;0.75;;;24.80;95.30;;;;;;20999557;28;20227;-77
2022/06/03 10:16:07;;;;;;;1.50;0.77;;;;;;;;;;21001039;28;20214;-76
2022/06/03 10:26:10;;;;;;;1.40;0.93;;;;;;;;;;20997106;28;20265;-77
2022/06/03 10:36:12;;;;;;;1.45;0.80;;;;;;;;;;20995885;28;20701;-76
2022/06/03 10:46:18;;;;;;;1.50;1.00;;;25.10;88.60;;;;;;20994650;28;20240;-78
2022/06/03 11:06:40;;;;;;;1.85;0.90;;;;;;;;;;20995562;28;20198;-77
2022/06/03 11:17:08;;;;;;;0.70;0.55;;;25.80;93.20;;;;;;20946384;28;20230;-77
2022/06/03 11:27:12;;;;;;;2.60;0.85;;;;;;;;;;20997319;28;20218;-78
2022/06/03 11:37:28;;;;;;;1.00;0.75;;;26.20;81.50;;;;;;20980408;28;20227;-78
2022/06/03 11:47:55;;;;;;;1.38;0.70;;;26.30;92.10;;;;;;20992392;28;20207;-78
2022/06/03 11:58:10;;;;;;;1.67;0.70;;;;;;;;;;20980700;28;20293;-77
2022/06/03 12:08:17;;;;;;;1.80;0.80;;;25.50;90.90;;;;;;20987228;28;20236;-78
2022/06/03 12:18:37;;;;;;;2.10;0.80;;;;;;;;;;20985178;28;20216;-79
2022/06/03 12:28:42;;;;;;;1.08;0.70;;;;;;;;;;20993187;28;20232;-79
2022/06/03 12:38:52;;;;;;;3.00;0.80;;;25.30;96.50;;;;;;20992050;28;20212;-78
2022/06/03 12:48:54;;;;;;;1.85;0.70;;;;;;;;;;20994484;28;20259;-79
2022/06/03 12:59:01;;;;;;;1.77;0.73;;;25.10;97.00;;;;;;20972468;28;20752;-79
2022/06/03 13:19:29;;;;;;;1.17;0.75;;;;;;;;;;21014843;28;20623;-80
2022/06/03 13:29:49;;;;;;;14.38;6.18;;;;;;;;;;20979814;28;20215;-81
2022/06/03 13:39:51;;;;;;;8.52;1.55;;;;;;;;;;21010310;28;20227;-81
2022/06/03 13:49:58;;;;;;;4.07;1.63;;;;;;;;;;21023460;28;20218;-81
2022/06/03 14:00:26;;;;;;;2.20;1.15;;;;;;;;;;21056588;28;20236;-79
2022/06/03 14:10:40;;;;;;;3.78;1.50;;;24.60;99.90;;;;;;21028934;28;20223;-79
2022/06/03 14:21:02;;;;;;;2.03;1.10;;;;;;;;;;20989168;28;20278;-80
2022/06/03 14:31:11;;;;;;;2.38;0.90;;;;;;;;;;21002288;28;20249;-79
2022/06/03 14:41:36;;;;;;;1.33;0.90;;;24.30;99.90;;;;;;20994680;28;20223;-77
2022/06/03 14:51:47;;;;;;;2.05;1.17;;;;;;;;;;20987865;28;20216;-77
2022/06/03 15:01:51;;;;;;;1.65;1.20;;;;;;;;;;21017271;28;20764;-78
2022/06/03 15:12:02;;;;;;;2.45;1.70;;;24.00;99.90;;;;;;21010128;28;20283;-78
2022/06/03 15:22:14;;;;;;;1.70;1.30;;;23.90;99.90;;;;;;20997610;28;20223;-78
2022/06/03 15:32:16;;;;;;;1.63;1.10;;;;;;;;;;21006553;28;20558;-78
2022/06/03 15:42:23;;;;;;;2.17;1.40;;;;;;;;;;20973233;28;20278;-77
2022/06/03 15:52:26;;;;;;;2.20;1.50;;;;;;;;;;20986721;28;20212;-76
2022/06/03 16:02:35;;;;;;;2.65;1.65;;;24.00;99.90;;;;;;20981926;28;20466;-76
2022/06/03 16:12:48;;;;;;;5.47;1.45;;;24.10;99.90;;;;;;20976380;28;20212;-76
2022/06/03 16:22:59;;;;;;;2.35;1.52;;;;;;;;;;20990525;28;20631;-77
2022/06/03 16:33:10;;;;;;;2.00;1.40;;;;;;;;;;20985442;28;20266;-77
2022/06/03 16:43:12;;;;;;;1.75;1.33;;;;;;;;;;20942096;28;20226;-76
2022/06/03 16:53:17;;;;;;;2.50;1.15;;;23.80;99.90;;;;;;20959670;28;20224;-76
2022/06/03 17:03:26;;;;;;;1.45;1.20;;;23.80;99.90;;;;;;20977502;28;20267;-76
2022/06/03 17:13:28;;;;;;;1.73;1.23;;;;;;;;;;20965118;28;20276;-76
2022/06/03 17:23:30;;;;;;;1.40;1.08;;;;;;;;;;20963928;28;20801;-77
2022/06/03 17:33:35;;;;;;;2.30;1.38;;;;;;;;;;20963051;28;20265;-77
2022/06/03 17:43:42;;;;;;;3.15;1.55;;;;;;;;;;20967213;22;20283;-76
2022/06/03 18:04:25;;;;;;;1.70;1.27;;;23.60;99.90;;;;;;20986070;28;20248;-76
2022/06/03 18:14:29;;;;;;;2.17;1.50;;;;;;;;;;20961903;28;20215;-76
2022/06/03 18:24:37;;;;;;;2.03;1.30;;;;;;;;;;20978069;28;20240;-76
2022/06/03 18:34:42;;;;;;;3.22;1.33;;;;;;;;;;20914329;28;20284;-76
2022/06/03 18:44:54;;;;;;;4.13;1.27;;;;;;;;;;20972817;28;20236;-76
2022/06/03 18:55:11;;;;;;;1.60;1.30;;;;;;;;;;20980237;28;20229;-76
2022/06/03 19:05:33;;;;;;;2.92;1.45;;;;;;;;;;20966997;28;20213;-76
2022/06/03 19:15:54;;;;;;;2.60;1.40;;;;;;;;;;20980742;28;20221;-76
2022/06/03 19:25:56;;;;;;;1.42;1.25;;;;;;;;;;20987187;28;20212;-76
2022/06/03 19:36:18;;;;;;;2.35;1.52;;;;;;;;;;21011484;28;20213;-76
2022/06/03 19:46:39;;;;;;;1.77;1.23;;;;;;;;;;20989747;28;20227;-75
2022/06/03 19:56:46;;;;;;;1.88;1.10;;;;;;;;;;20976105;28;20583;-75
2022/06/03 20:06:56;;;;;;;1.45;1.05;;;;;;;;;;21011244;28;20225;-76
2022/06/03 20:17:19;;;;;;;1.65;1.10;;;22.50;99.90;;;;;;20994369;28;20765;-75
2022/06/03 20:27:26;;;;;;;1.50;1.20;;;;;;;;;;21015217;28;20220;-77
2022/06/03 20:37:53;;;;;;;1.58;1.10;;;22.50;99.90;;;;;;21046350;28;20222;-75
2022/06/03 20:48:27;;;;;;;1.80;1.27;;;;;;;;;;21088974;28;20210;-76
2022/06/03 20:59:18;;;;;;;1.45;1.05;;;22.40;99.90;;;;;;20862743;28;20224;-75
2022/06/03 21:19:40;;;;;;;1.65;1.40;;;;;;;;;;20981945;28;20224;-75
2022/06/03 21:29:42;;;;;;;2.47;1.60;;;;;;;;;;20971890;28;20208;-75
2022/06/03 21:40:17;;;;;;;3.92;1.60;;;22.20;99.90;;;;;;20999384;28;20262;-75
2022/06/03 21:50:43;;;;;;;2.20;1.65;;;;;;;;;;21000471;28;20530;-75
2022/06/03 22:01:00;;;;;;;1.77;1.30;;;22.00;99.90;;;;;;20965286;28;20302;-75
2022/06/03 22:21:23;;;;;;;1.88;1.38;;;;;;;;;;20998765;28;20243;-77
2022/06/03 22:31:25;;;;;;;2.10;1.75;;;;;;;;;;20978891;28;20277;-76
2022/06/03 22:41:54;;;;;;;2.75;1.90;;;21.70;99.90;;;;;;20995874;28;20216;-76
2022/06/03 22:51:56;;;;;;;1.43;1.10;;;;;;;;;;20979287;28;20738;-76
2022/06/03 23:01:58;;;;;;;1.50;1.07;;;;;;;;;;20990606;28;20222;-77
2022/06/03 23:12:00;;;;;;;1.52;1.08;;;;;;;;;;20992607;28;20679;-77
2022/06/03 23:22:02;;;;;;;1.98;1.17;;;;;;;;;;20993406;28;20242;-76
2022/06/03 23:32:05;;;;;;;1.80;1.07;;;;;;;;;;20979771;28;20226;-75
2022/06/03 23:52:44;;;;;;;0.80;0.70;;;;;;;;;;21073532;28;20237;-75
